Time;durP1;ratioP1;P1;durP2;ratioP2;P2;SDS_P1;SDS_P2;PMS_P1;PMS_P2;Temp;Humidity;BMP_temperature;BMP_pressure;BME280_temperature;BME280_humidity;BME280_pressure;Samples;Min_cycle;Max_cycle;Signal;HPM_P1;HPM_P2
2021/09/03 00:02:10;;;;;;;26.05;13.40;;;;;;;13.03;82.38;102603.63;5066815;28;20029;-59
2021/09/03 00:04:36;;;;;;;25.58;12.77;;;;;;;13.00;82.71;102603.56;5066468;28;20033;-59
2021/09/03 00:07:01;;;;;;;28.02;12.65;;;;;;;12.96;83.28;102604.38;5066532;28;20026;-58
2021/09/03 00:09:27;;;;;;;26.38;13.25;;;;;;;12.92;82.85;102595.53;5063643;28;20044;-58
2021/09/03 00:11:52;;;;;;;26.35;13.30;;;;;;;12.90;83.10;102594.63;5066962;28;20063;-59
2021/09/03 00:14:17;;;;;;;28.00;13.02;;;;;;;12.91;83.40;102595.50;5066199;28;20094;-60
2021/09/03 00:16:43;;;;;;;27.90;13.40;;;;;;;12.88;82.98;102597.22;5066442;28;20040;-59
2021/09/03 00:19:08;;;;;;;28.98;13.27;;;;;;;12.87;83.05;102590.19;5065279;28;20048;-59
2021/09/03 00:21:34;;;;;;;25.52;12.43;;;;;;;12.87;83.42;102591.91;5067197;28;20102;-60
2021/09/03 00:23:59;;;;;;;26.15;12.68;;;;;;;12.89;83.28;102590.19;5065475;28;20062;-59
2021/09/03 00:26:24;;;;;;;24.73;12.55;;;;;;;12.90;83.20;102581.44;5064628;28;20044;-59
2021/09/03 00:28:50;;;;;;;25.05;12.77;;;;;;;12.90;83.13;102586.72;5065119;28;20044;-59
2021/09/03 00:31:15;;;;;;;24.73;12.93;;;;;;;12.93;82.98;102573.56;5066459;28;20036;-59
2021/09/03 00:33:41;;;;;;;28.83;12.82;;;;;;;12.94;83.03;102577.97;5064900;28;20060;-59
2021/09/03 00:36:06;;;;;;;26.23;13.23;;;;;;;12.93;83.52;102577.94;5066711;28;20044;-59
2021/09/03 00:38:31;;;;;;;24.92;13.07;;;;;;;12.90;83.26;102577.91;5065738;28;20047;-59
2021/09/03 00:40:57;;;;;;;26.83;13.73;;;;;;;12.87;83.50;102577.00;5063903;28;20128;-59
2021/09/03 00:43:22;;;;;;;26.33;13.13;;;;;;;12.88;83.46;102575.25;5064412;28;20036;-58
2021/09/03 00:45:48;;;;;;;28.85;13.93;;;;;;;12.91;83.19;102567.41;5066158;28;20025;-58
2021/09/03 00:48:13;;;;;;;26.02;13.07;;;;;;;12.90;83.13;102570.00;5064878;28;20061;-59
2021/09/03 00:50:41;;;;;;;30.27;14.07;;;;;;;12.87;83.47;102566.44;5065563;28;20067;-58
2021/09/03 00:53:06;;;;;;;32.40;14.38;;;;;;;12.85;83.56;102567.28;5065101;28;20031;-58
2021/09/03 00:55:32;;;;;;;25.90;13.43;;;;;;;12.83;83.49;102561.97;5065305;28;20056;-59
2021/09/03 00:57:58;;;;;;;27.23;14.27;;;;;;;12.84;83.93;102568.16;5064423;28;20477;-59
2021/09/03 01:00:23;;;;;;;29.88;14.40;;;;;;;12.81;83.92;102561.06;5065002;28;20082;-57
2021/09/03 01:02:48;;;;;;;29.38;13.32;;;;;;;12.82;83.85;102561.97;5065134;28;20029;-58
2021/09/03 01:05:14;;;;;;;26.40;13.60;;;;;;;12.81;84.25;102568.97;5065404;28;20052;-59
2021/09/03 01:07:39;;;;;;;36.97;15.23;;;;;;;12.80;84.68;102554.03;5063612;28;20036;-59
2021/09/03 01:10:05;;;;;;;31.17;14.75;;;;;;;12.80;84.52;102550.50;5061103;28;20044;-59
2021/09/03 01:12:31;;;;;;;32.33;14.15;;;;;;;12.81;84.51;102553.13;5065839;28;20500;-57
2021/09/03 01:14:56;;;;;;;32.15;14.65;;;;;;;12.82;84.32;102541.75;5064672;28;20032;-58
2021/09/03 01:17:22;;;;;;;27.75;13.50;;;;;;;12.83;84.39;102546.13;5064980;28;20439;-59
2021/09/03 01:19:51;;;;;;;31.15;14.20;;;;;;;12.87;84.53;102552.34;5064958;28;20045;-59
2021/09/03 01:22:21;;;;;;;30.33;14.07;;;;;;;12.86;84.67;102545.31;5065417;28;20040;-58
2021/09/03 01:24:46;;;;;;;28.67;13.38;;;;;;;12.84;84.57;102545.28;5064451;28;20385;-59
2021/09/03 01:27:12;;;;;;;29.95;14.15;;;;;;;12.84;84.46;102544.41;5064870;28;20037;-58
2021/09/03 01:29:37;;;;;;;27.10;13.05;;;;;;;12.87;84.66;102544.44;5064971;28;20036;-58
2021/09/03 01:32:03;;;;;;;26.48;13.63;;;;;;;12.86;84.40;102543.56;5064322;28;20060;-59
2021/09/03 01:34:28;;;;;;;33.22;14.80;;;;;;;12.90;84.68;102540.97;5064961;28;20037;-58
2021/09/03 01:36:54;;;;;;;33.22;13.65;;;;;;;12.92;84.48;102533.97;5064495;28;20055;-58
2021/09/03 01:39:19;;;;;;;28.20;14.15;;;;;;;12.94;84.44;102533.13;5063132;28;20097;-58
2021/09/03 01:41:44;;;;;;;28.42;13.88;;;;;;;12.94;84.27;102532.25;5064913;28;20037;-59
2021/09/03 01:44:10;;;;;;;30.15;13.57;;;;;;;12.94;84.19;102535.75;5064397;28;20044;-59
2021/09/03 01:46:36;;;;;;;32.40;14.63;;;;;;;12.93;84.46;102527.81;5065087;28;20029;-59
2021/09/03 01:49:01;;;;;;;33.20;14.38;;;;;;;12.91;84.45;102522.53;5063866;28;20445;-59
2021/09/03 01:51:27;;;;;;;29.98;13.80;;;;;;;12.92;84.54;102526.06;5065201;28;20068;-59
2021/09/03 01:53:52;;;;;;;29.08;14.43;;;;;;;12.90;84.40;102517.22;5064471;28;20033;-59
2021/09/03 01:56:18;;;;;;;31.80;13.50;;;;;;;12.89;84.54;102513.69;5064157;28;20045;-58
2021/09/03 01:58:43;;;;;;;29.38;13.95;;;;;;;12.91;84.54;102517.25;5064571;28;20061;-59
2021/09/03 02:01:08;;;;;;;28.50;13.77;;;;;;;12.87;84.58;102513.69;5064083;28;20028;-58
2021/09/03 02:03:34;;;;;;;33.67;14.45;;;;;;;12.91;84.63;102508.44;5063239;28;20077;-58
2021/09/03 02:05:59;;;;;;;37.75;15.23;;;;;;;12.92;84.42;102510.22;5063985;28;20091;-59
2021/09/03 02:08:25;;;;;;;28.30;14.68;;;;;;;12.90;84.57;102512.84;5062792;28;20032;-58
2021/09/03 02:10:50;;;;;;;28.92;15.20;;;;;;;12.88;84.65;102509.28;5062307;28;20060;-58
2021/09/03 02:13:15;;;;;;;35.70;14.52;;;;;;;12.87;84.87;102502.22;5063071;28;20033;-58
2021/09/03 02:15:42;;;;;;;29.50;14.57;;;;;;;12.87;85.17;102507.50;5064319;28;20041;-59
2021/09/03 02:18:07;;;;;;;27.50;14.20;;;;;;;12.87;84.79;102497.84;5063596;28;20033;-58
2021/09/03 02:20:33;;;;;;;31.17;14.38;;;;;;;12.87;84.93;102504.88;5064586;28;20033;-58
2021/09/03 02:22:58;;;;;;;34.35;13.88;;;;;;;12.84;85.28;102503.06;5063531;28;20087;-58
2021/09/03 02:25:23;;;;;;;33.17;15.60;;;;;;;12.82;85.04;102498.66;5062820;28;20052;-58
2021/09/03 02:27:49;;;;;;;30.17;14.95;;;;;;;12.80;85.29;102495.97;5064178;28;20029;-59
2021/09/03 02:30:14;;;;;;;35.42;14.75;;;;;;;12.78;85.67;102497.72;5064004;28;20037;-60
2021/09/03 02:32:39;;;;;;;32.40;15.18;;;;;;;12.80;85.32;102492.47;5053119;28;20092;-59
2021/09/03 02:35:06;;;;;;;31.00;15.15;;;;;;;12.77;85.28;102490.66;5063508;28;20059;-59
2021/09/03 02:37:32;;;;;;;34.28;15.18;;;;;;;12.76;85.61;102485.34;5063255;28;20044;-59
2021/09/03 02:39:57;;;;;;;33.75;15.68;;;;;;;12.77;85.72;102488.00;5059280;28;20052;-59
2021/09/03 02:42:23;;;;;;;28.85;14.75;;;;;;;12.75;85.43;102487.09;5063608;28;20048;-59
2021/09/03 02:44:48;;;;;;;31.65;14.57;;;;;;;12.75;85.47;102480.94;5064291;28;20036;-58
2021/09/03 02:47:13;;;;;;;34.17;15.05;;;;;;;12.79;85.39;102481.00;5060414;28;20033;-59
2021/09/03 02:49:39;;;;;;;29.67;15.85;;;;;;;12.79;85.48;102470.44;5063595;28;20116;-60
2021/09/03 02:52:05;;;;;;;29.30;15.32;;;;;;;12.77;85.46;102471.31;5045163;28;20059;-59
2021/09/03 02:54:31;;;;;;;30.00;15.23;;;;;;;12.77;85.70;102476.59;5062319;28;20490;-58
2021/09/03 02:56:56;;;;;;;32.30;14.82;;;;;;;12.77;85.22;102469.53;5062999;28;20082;-59
2021/09/03 02:59:21;;;;;;;32.78;15.52;;;;;;;12.78;85.70;102473.06;5063455;28;20021;-58
2021/09/03 03:01:47;;;;;;;31.33;15.88;;;;;;;12.79;85.34;102464.31;5063475;28;20152;-58
2021/09/03 03:04:12;;;;;;;32.03;15.73;;;;;;;12.80;85.30;102466.97;5063075;28;20047;-58
2021/09/03 03:06:37;;;;;;;36.53;14.82;;;;;;;12.80;84.88;102456.41;5061557;28;20083;-59
2021/09/03 03:09:03;;;;;;;36.25;15.98;;;;;;;12.81;84.98;102457.28;5062388;28;20469;-58
2021/09/03 03:11:28;;;;;;;30.08;15.40;;;;;;;12.82;84.64;102457.31;5062961;28;20083;-59
2021/09/03 03:14:03;;;;;;;29.98;15.25;;;;;;;12.87;84.66;102447.75;5063421;28;20029;-58
2021/09/03 03:16:29;;;;;;;29.05;15.93;;;;;;;12.87;84.89;102452.09;5064030;28;20029;-59
2021/09/03 03:18:54;;;;;;;32.50;15.73;;;;;;;12.86;84.78;102448.59;5062070;28;20381;-59
2021/09/03 03:21:20;;;;;;;32.42;15.18;;;;;;;12.86;84.71;102450.34;5062199;28;20033;-59
2021/09/03 03:23:45;;;;;;;33.28;14.75;;;;;;;12.88;84.67;102451.25;5062793;28;20048;-58
2021/09/03 03:26:10;;;;;;;27.60;14.57;;;;;;;12.92;84.55;102446.91;5063020;28;20040;-59
2021/09/03 03:28:36;;;;;;;32.95;16.20;;;;;;;12.94;84.44;102448.69;5062790;28;20037;-59
2021/09/03 03:31:01;;;;;;;35.95;16.45;;;;;;;12.92;84.69;102439.88;5062435;28;20433;-59
2021/09/03 03:33:27;;;;;;;32.22;15.63;;;;;;;13.00;84.35;102442.63;5063150;28;20060;-59
2021/09/03 03:35:52;;;;;;;36.38;16.33;;;;;;;13.03;83.96;102440.03;5062900;28;20048;-59
2021/09/03 03:38:17;;;;;;;31.55;15.35;;;;;;;13.02;83.98;102443.53;5062181;28;20033;-58
2021/09/03 03:40:42;;;;;;;32.25;15.85;;;;;;;13.00;84.10;102434.69;5060619;28;20069;-59
2021/09/03 03:43:08;;;;;;;38.00;16.55;;;;;;;13.00;84.19;102432.06;5062745;28;20029;-58
2021/09/03 03:45:33;;;;;;;32.00;15.43;;;;;;;13.04;84.21;102434.78;5062817;28;20537;-59
2021/09/03 03:47:59;;;;;;;35.33;15.80;;;;;;;13.01;84.43;102431.22;5063421;28;20036;-59
2021/09/03 03:50:24;;;;;;;32.03;15.98;;;;;;;13.00;84.29;102429.41;5063196;28;20048;-59
2021/09/03 03:52:49;;;;;;;34.13;16.33;;;;;;;12.95;84.75;102421.47;5063380;28;20167;-58
2021/09/03 03:55:15;;;;;;;32.08;17.08;;;;;;;12.94;84.96;102421.44;5061968;28;20036;-59
2021/09/03 03:57:40;;;;;;;31.52;15.95;;;;;;;12.94;85.02;102416.16;5062878;28;20516;-59
2021/09/03 04:00:06;;;;;;;36.90;16.52;;;;;;;12.96;84.85;102423.22;5063161;28;20041;-59
2021/09/03 04:02:32;;;;;;;38.13;16.08;;;;;;;12.95;84.74;102415.28;5062231;28;20036;-59
2021/09/03 04:04:57;;;;;;;30.83;16.10;;;;;;;12.93;85.05;102417.00;5062900;28;20033;-59
2021/09/03 04:07:22;;;;;;;33.92;16.92;;;;;;;12.99;84.60;102418.00;5063065;28;20064;-59
2021/09/03 04:09:48;;;;;;;32.72;15.88;;;;;;;12.94;84.84;102419.66;5065225;28;20057;-59
2021/09/03 04:12:13;;;;;;;31.83;15.60;;;;;;;12.97;85.08;102419.72;5062158;28;20035;-59
2021/09/03 04:14:39;;;;;;;35.80;14.50;;;;;;;13.04;84.22;102410.13;5063235;28;20040;-59
2021/09/03 04:17:04;;;;;;;37.40;17.05;;;;;;;13.02;84.51;102409.22;5063170;28;20032;-59
2021/09/03 04:19:29;;;;;;;37.67;16.90;;;;;;;12.98;84.84;102417.97;5062421;28;20029;-59
2021/09/03 04:21:55;;;;;;;33.55;16.25;;;;;;;12.96;84.71;102417.06;5062552;28;20124;-59
2021/09/03 04:24:20;;;;;;;38.72;17.23;;;;;;;13.00;84.41;102421.50;5062160;28;20083;-59
2021/09/03 04:26:45;;;;;;;40.28;18.10;;;;;;;13.00;84.67;102421.50;5062240;28;20033;-59
2021/09/03 04:29:11;;;;;;;32.30;15.27;;;;;;;12.95;84.83;102413.53;5062890;28;20104;-58
2021/09/03 04:31:36;;;;;;;39.08;17.88;;;;;;;12.92;85.07;102413.50;5064533;28;20029;-58
2021/09/03 04:34:02;;;;;;;36.03;16.73;;;;;;;12.90;85.24;102412.59;5065696;28;20096;-58
2021/09/03 04:36:27;;;;;;;40.22;18.42;;;;;;;12.87;85.21;102418.72;5066124;28;20033;-58
2021/09/03 04:38:52;;;;;;;31.58;16.98;;;;;;;12.90;85.18;102406.44;5065790;28;20021;-58
2021/09/03 04:41:18;;;;;;;35.03;16.67;;;;;;;12.93;84.85;102414.38;5065778;28;20445;-58
2021/09/03 04:43:43;;;;;;;36.50;18.15;;;;;;;12.91;85.19;102406.47;5066231;28;20036;-59
2021/09/03 04:46:09;;;;;;;39.20;17.80;;;;;;;12.87;85.00;102413.44;5063939;28;20052;-59
2021/09/03 04:48:34;;;;;;;32.92;17.35;;;;;;;12.86;85.38;102408.13;5065846;28;20044;-59
2021/09/03 04:50:59;;;;;;;35.45;17.13;;;;;;;12.84;85.51;102404.59;5066125;28;20032;-58
2021/09/03 04:53:25;;;;;;;37.67;17.30;;;;;;;12.85;85.36;102409.00;5065368;28;20029;-58
2021/09/03 04:55:52;;;;;;;35.53;18.17;;;;;;;12.85;85.30;102407.25;5065386;28;20061;-59
2021/09/03 04:58:18;;;;;;;39.40;17.65;;;;;;;12.85;85.45;102412.53;5063780;28;20033;-58
2021/09/03 05:00:43;;;;;;;37.15;17.85;;;;;;;12.85;85.44;102409.91;5066088;28;20076;-59
2021/09/03 05:03:08;;;;;;;37.40;17.65;;;;;;;12.85;85.44;102404.63;5065995;28;20029;-59
2021/09/03 05:05:34;;;;;;;38.08;17.88;;;;;;;12.86;85.51;102406.38;5065671;28;20078;-58
2021/09/03 05:07:59;;;;;;;39.00;17.77;;;;;;;12.91;85.49;102411.72;5065085;28;20033;-57
2021/09/03 05:10:24;;;;;;;43.25;19.75;;;;;;;12.91;85.52;102406.47;5062863;28;20376;-59
2021/09/03 05:12:50;;;;;;;42.75;19.08;;;;;;;12.92;85.27;102405.56;5064928;28;20549;-58
2021/09/03 05:15:17;;;;;;;38.20;17.90;;;;;;;12.95;85.60;102407.34;5065518;28;20108;-58
2021/09/03 05:17:50;;;;;;;46.00;20.00;;;;;;;12.94;85.33;102400.31;5065812;28;20040;-59
2021/09/03 05:20:17;;;;;;;41.60;19.65;;;;;;;12.94;85.38;102400.31;5064480;28;20104;-60
2021/09/03 05:22:43;;;;;;;41.63;19.20;;;;;;;12.96;85.81;102401.22;5064740;28;20021;-59
2021/09/03 05:25:09;;;;;;;41.08;19.05;;;;;;;13.02;85.47;102406.56;5064223;28;20035;-58
2021/09/03 05:27:38;;;;;;;43.08;19.45;;;;;;;13.01;85.56;102405.69;5065055;28;20036;-60
2021/09/03 05:30:04;;;;;;;40.35;20.40;;;;;;;13.02;85.76;102404.84;5064914;28;20041;-58
2021/09/03 05:32:29;;;;;;;44.40;20.50;;;;;;;13.04;85.52;102408.38;5065148;28;20029;-58
2021/09/03 05:34:55;;;;;;;43.58;20.42;;;;;;;13.06;85.45;102411.94;5063540;28;20043;-58
2021/09/03 05:37:20;;;;;;;41.92;21.40;;;;;;;13.07;85.42;102411.06;5065220;28;20044;-58
2021/09/03 05:39:45;;;;;;;45.10;20.55;;;;;;;13.14;85.26;102419.94;5064772;28;20033;-59
2021/09/03 05:42:11;;;;;;;43.88;19.50;;;;;;;13.16;85.19;102418.22;5062867;28;21007;-59
2021/09/03 05:44:37;;;;;;;40.78;18.92;;;;;;;13.23;85.29;102416.50;5062196;28;20037;-59
2021/09/03 05:47:03;;;;;;;47.42;20.52;;;;;;;13.29;84.84;102418.34;5063205;28;20070;-58
2021/09/03 05:49:28;;;;;;;35.47;18.27;;;;;;;13.36;84.88;102409.66;5055980;28;20057;-59
2021/09/03 05:51:53;;;;;;;39.03;19.50;;;;;;;13.42;84.19;102408.00;5057649;28;20036;-59
2021/09/03 05:54:19;;;;;;;42.58;19.70;;;;;;;13.42;84.42;102412.38;5063582;28;20092;-58
2021/09/03 05:56:44;;;;;;;43.85;19.88;;;;;;;13.43;84.44;102408.88;5055314;28;20060;-58
2021/09/03 05:59:09;;;;;;;40.67;19.80;;;;;;;13.45;84.45;102410.66;5063261;28;20043;-58
2021/09/03 06:01:35;;;;;;;46.85;20.95;;;;;;;13.49;84.44;102411.59;5059647;28;20033;-59
2021/09/03 06:04:00;;;;;;;44.38;20.25;;;;;;;13.50;84.62;102416.00;5063291;28;20091;-59
2021/09/03 06:06:26;;;;;;;45.92;20.33;;;;;;;13.53;84.34;102408.09;5063546;28;20032;-58
2021/09/03 06:08:52;;;;;;;39.78;19.83;;;;;;;13.59;84.24;102404.66;5060256;28;20041;-59
2021/09/03 06:11:25;;;;;;;46.15;20.10;;;;;;;13.67;83.91;102400.34;5057702;28;20037;-58
2021/09/03 06:13:52;;;;;;;36.45;19.73;;;;;;;13.76;83.53;102400.44;5055974;28;20047;-58
2021/09/03 06:16:17;;;;;;;37.53;19.52;;;;;;;13.84;83.43;102405.81;5059804;28;20032;-59
2021/09/03 06:18:43;;;;;;;38.03;18.25;;;;;;;13.87;83.40;102404.94;5063132;28;20040;-59
2021/09/03 06:21:09;;;;;;;41.17;19.40;;;;;;;13.89;83.38;102400.53;5057762;28;20482;-59
2021/09/03 06:23:34;;;;;;;36.55;19.63;;;;;;;13.96;83.19;102408.53;5057489;28;20067;-59
2021/09/03 06:26:00;;;;;;;38.20;19.00;;;;;;;14.00;82.90;102404.19;5060795;28;20049;-64
2021/09/03 06:28:25;;;;;;;39.28;19.85;;;;;;;14.04;82.91;102401.59;5063355;28;20132;-59
2021/09/03 06:30:50;;;;;;;36.65;19.13;;;;;;;14.08;82.86;102399.84;5059630;28;20128;-59
2021/09/03 06:33:16;;;;;;;35.55;18.60;;;;;;;14.14;82.61;102401.63;5063092;28;20089;-58
2021/09/03 06:35:41;;;;;;;33.60;17.27;;;;;;;14.26;82.10;102399.13;5064073;28;20037;-59
2021/09/03 06:38:06;;;;;;;40.08;16.73;;;;;;;14.43;80.92;102409.81;5061920;28;20029;-60
2021/09/03 06:40:32;;;;;;;44.28;19.75;;;;;;;14.57;80.91;102407.28;5061794;28;20096;-61
2021/09/03 06:42:57;;;;;;;43.22;17.90;;;;;;;14.65;80.17;102407.34;5063099;28;20040;-61
2021/09/03 06:45:23;;;;;;;28.83;16.52;;;;;;;14.88;80.04;102407.50;5062338;28;20139;-61
2021/09/03 06:47:48;;;;;;;32.05;17.67;;;;;;;15.05;78.28;102405.81;5093838;28;20064;-61
2021/09/03 06:50:14;;;;;;;28.75;15.73;;;;;;;15.26;78.25;102398.84;5063274;28;20053;-61
2021/09/03 06:52:39;;;;;;;28.38;15.75;;;;;;;15.46;76.73;102402.41;5063828;28;20025;-61
2021/09/03 06:55:05;;;;;;;29.38;16.30;;;;;;;15.55;76.12;102399.78;5062480;28;20057;-60
2021/09/03 06:57:31;;;;;;;32.97;17.85;;;;;;;15.63;75.68;102401.59;5051755;28;20035;-61
2021/09/03 06:59:56;;;;;;;52.90;19.25;;;;;;;15.73;76.45;102399.00;5061184;28;20056;-62
2021/09/03 07:02:22;;;;;;;28.25;16.17;;;;;;;15.97;75.27;102397.25;5063312;28;20033;-61
2021/09/03 07:04:47;;;;;;;31.92;16.25;;;;;;;16.06;74.28;102399.03;5055464;28;20105;-61
2021/09/03 07:07:13;;;;;;;28.85;15.70;;;;;;;16.04;74.00;102390.19;5062654;28;20043;-63
2021/09/03 07:09:38;;;;;;;28.42;14.90;;;;;;;16.13;74.27;102393.72;5060749;28;20048;-61
2021/09/03 07:12:04;;;;;;;32.67;16.05;;;;;;;16.30;74.02;102385.75;5061829;28;20037;-61
2021/09/03 07:14:29;;;;;;;26.52;14.52;;;;;;;16.45;73.27;102383.97;5058804;28;20051;-61
2021/09/03 07:16:54;;;;;;;23.17;13.95;;;;;;;16.52;73.60;102385.72;5058087;28;20040;-60
2021/09/03 07:19:20;;;;;;;22.15;14.02;;;;;;;16.68;73.10;102386.56;5063865;28;20112;-60
2021/09/03 07:21:46;;;;;;;26.95;16.20;;;;;;;16.73;72.66;102390.13;5062249;28;20047;-62
2021/09/03 07:24:12;;;;;;;21.60;14.10;;;;;;;16.73;73.55;102388.34;5060795;28;20385;-61
2021/09/03 07:26:37;;;;;;;27.52;15.18;;;;;;;16.79;72.81;102398.06;5063552;28;20029;-62
2021/09/03 07:29:04;;;;;;;25.13;14.13;;;;;;;16.85;72.48;102389.22;5063331;28;20036;-61
2021/09/03 07:31:30;;;;;;;25.50;14.45;;;;;;;16.95;72.78;102399.78;5061249;28;20028;-61
2021/09/03 07:33:56;;;;;;;22.67;13.73;;;;;;;17.05;71.74;102392.69;5062839;28;20025;-62
2021/09/03 07:36:21;;;;;;;24.90;15.07;;;;;;;17.11;71.55;102394.44;5058098;28;20156;-62
2021/09/03 07:38:47;;;;;;;25.40;14.63;;;;;;;17.21;71.19;102389.97;5062864;28;20025;-61
2021/09/03 07:41:12;;;;;;;27.55;15.18;;;;;;;17.22;71.27;102386.41;5062786;28;20025;-61
2021/09/03 07:43:38;;;;;;;24.75;15.15;;;;;;;17.28;71.29;102386.41;5060974;28;20040;-62
2021/09/03 07:46:03;;;;;;;26.17;15.18;;;;;;;17.36;70.81;102392.53;5062905;28;20025;-61
2021/09/03 07:48:29;;;;;;;25.45;14.05;;;;;;;17.44;70.91;102381.88;5053592;28;20034;-61
2021/09/03 07:50:54;;;;;;;26.15;15.85;;;;;;;17.46;69.35;102382.75;5057394;28;20033;-60
2021/09/03 07:53:20;;;;;;;24.80;14.82;;;;;;;17.53;69.05;102380.03;5061479;28;20061;-61
2021/09/03 07:55:46;;;;;;;19.40;13.32;;;;;;;17.65;68.56;102379.06;5063289;28;20033;-60
2021/09/03 07:58:11;;;;;;;20.58;12.98;;;;;;;17.73;68.77;102376.34;5057163;28;20096;-60
2021/09/03 08:00:37;;;;;;;27.35;15.23;;;;;;;17.79;69.39;102378.09;5063306;28;20063;-61
2021/09/03 08:03:03;;;;;;;21.55;13.93;;;;;;;17.85;69.91;102378.97;5060043;28;20048;-61
2021/09/03 08:05:28;;;;;;;27.02;14.63;;;;;;;17.93;67.38;102376.25;5054552;28;20040;-61
2021/09/03 08:07:54;;;;;;;23.10;13.77;;;;;;;17.97;67.42;102372.66;5067077;28;20491;-62
2021/09/03 08:10:19;;;;;;;24.88;14.07;;;;;;;18.07;67.47;102368.13;5064396;28;20071;-61
2021/09/03 08:12:45;;;;;;;23.38;15.32;;;;;;;17.94;67.33;102364.72;5070702;28;20040;-60
2021/09/03 08:15:11;;;;;;;25.23;14.82;;;;;;;17.90;68.61;102371.84;5071045;28;20029;-62
2021/09/03 08:17:37;;;;;;;24.13;13.88;;;;;;;17.97;68.61;102364.69;5064099;28;20033;-61
2021/09/03 08:20:06;;;;;;;23.30;14.43;;;;;;;18.08;69.00;102370.78;5065171;28;20057;-62
2021/09/03 08:22:31;;;;;;;27.30;14.23;;;;;;;18.22;69.69;102364.47;5066908;28;20032;-62
2021/09/03 08:24:57;;;;;;;23.55;14.45;;;;;;;18.34;69.44;102359.03;5063947;28;20029;-61
2021/09/03 08:27:22;;;;;;;21.75;14.32;;;;;;;18.47;69.83;102370.44;5069232;28;20044;-64
2021/09/03 08:29:48;;;;;;;22.55;14.60;;;;;;;18.59;68.03;102366.75;5063362;28;20025;-61
2021/09/03 08:32:13;;;;;;;21.13;12.88;;;;;;;18.76;68.15;102363.91;5067322;28;20036;-62
2021/09/03 08:34:40;;;;;;;22.58;12.93;;;;;;;18.91;66.52;102355.78;5073995;28;20667;-61
2021/09/03 08:37:06;;;;;;;24.70;13.48;;;;;;;19.04;66.70;102359.16;5065312;28;20025;-62
2021/09/03 08:39:31;;;;;;;23.50;12.55;;;;;;;19.12;66.82;102365.25;5063759;28;20043;-63
2021/09/03 08:41:56;;;;;;;24.92;13.68;;;;;;;19.26;65.96;102362.41;5065974;28;20025;-61
2021/09/03 08:44:22;;;;;;;25.95;13.18;;;;;;;19.39;64.71;102369.31;5079919;28;20036;-63
2021/09/03 08:46:48;;;;;;;21.35;12.55;;;;;;;19.42;63.52;102363.97;5063671;28;20033;-62
2021/09/03 08:49:14;;;;;;;21.85;13.60;;;;;;;19.26;63.36;102362.41;5067462;28;20028;-62
2021/09/03 08:51:39;;;;;;;20.23;12.27;;;;;;;19.37;64.17;102371.13;5065950;28;20033;-63
2021/09/03 08:54:05;;;;;;;27.70;11.82;;;;;;;19.45;64.59;102369.25;5060548;28;20039;-62
2021/09/03 08:56:30;;;;;;;21.75;12.05;;;;;;;19.52;64.69;102383.34;5068786;28;20065;-63
2021/09/03 08:58:56;;;;;;;28.15;13.50;;;;;;;19.44;63.21;102374.59;5065605;28;20086;-61
2021/09/03 09:01:21;;;;;;;24.58;13.75;;;;;;;19.34;62.73;102367.63;5064298;28;20045;-63
2021/09/03 09:03:49;;;;;;;18.05;11.02;;;;;;;19.41;63.89;102369.31;5062372;28;20033;-64
2021/09/03 09:06:22;;;;;;;19.75;12.30;;;;;;;19.34;62.82;102364.97;5066142;28;20047;-62
2021/09/03 09:09:07;;;;;;;19.80;12.45;;;;;;;19.55;62.10;102371.78;5062790;28;20064;-62
2021/09/03 09:11:34;;;;;;;17.80;9.93;;;;;;;19.63;62.34;102373.41;5064544;28;20049;-61
2021/09/03 09:14:03;;;;;;;19.52;11.40;;;;;;;19.71;63.72;102380.41;5066944;28;20041;-62
2021/09/03 09:16:32;;;;;;;20.25;12.43;;;;;;;19.70;64.41;102373.31;5075254;28;20452;-63
2021/09/03 09:18:59;;;;;;;18.15;11.63;;;;;;;19.76;63.56;102378.59;5070200;28;20028;-63
2021/09/03 09:21:26;;;;;;;20.25;11.13;;;;;;;19.95;61.42;102384.53;5067815;28;20044;-63
2021/09/03 09:23:58;;;;;;;15.73;10.65;;;;;;;20.14;60.26;102377.97;5061781;28;20037;-62
2021/09/03 09:26:26;;;;;;;18.27;11.43;;;;;;;20.13;62.24;102372.66;5061867;28;20029;-62
2021/09/03 09:28:53;;;;;;;21.67;11.82;;;;;;;20.04;61.02;102377.25;5065905;28;20032;-62
2021/09/03 09:31:35;;;;;;;20.33;12.65;;;;;;;20.04;63.09;102371.03;5064653;28;20064;-62
2021/09/03 09:34:31;;;;;;;18.27;11.05;;;;;;;20.30;62.08;102372.34;5063809;28;20051;-62
2021/09/03 09:37:00;;;;;;;20.90;12.18;;;;;;;20.30;60.23;102367.00;5072584;28;20496;-63
2021/09/03 09:39:26;;;;;;;22.27;12.27;;;;;;;20.16;60.21;102377.94;5070547;28;20024;-62
2021/09/03 09:42:03;;;;;;;19.20;11.27;;;;;;;20.16;60.56;102373.47;5058613;28;20119;-63
2021/09/03 09:44:34;;;;;;;21.88;12.10;;;;;;;20.06;61.42;102367.44;5058645;28;20101;-66
2021/09/03 09:47:07;;;;;;;22.10;12.40;;;;;;;20.11;61.29;102364.66;5061574;28;20025;-63
2021/09/03 09:49:33;;;;;;;21.85;12.60;;;;;;;20.10;61.02;102370.06;5064003;28;20048;-63
2021/09/03 09:51:58;;;;;;;18.25;11.75;;;;;;;20.10;61.28;102368.25;5061927;28;20029;-63
2021/09/03 09:54:25;;;;;;;24.85;12.73;;;;;;;20.21;60.92;102368.94;5068597;28;20017;-63
2021/09/03 09:56:56;;;;;;;21.20;12.57;;;;;;;20.20;61.72;102358.28;5064618;28;20017;-62
2021/09/03 09:59:23;;;;;;;21.10;11.77;;;;;;;20.18;61.26;102363.66;5079852;28;20043;-63
2021/09/03 10:01:52;;;;;;;16.27;11.07;;;;;;;20.38;61.24;102357.09;5062034;28;20455;-63
2021/09/03 10:04:21;;;;;;;22.67;12.45;;;;;;;20.30;59.86;102356.34;5063822;28;20028;-63
2021/09/03 10:06:50;;;;;;;19.55;10.88;;;;;;;20.33;60.06;102356.28;5064895;28;20021;-63
2021/09/03 10:09:18;;;;;;;16.88;11.48;;;;;;;20.51;59.80;102358.63;5065160;28;20041;-62
2021/09/03 10:11:45;;;;;;;19.05;11.10;;;;;;;20.54;59.85;102358.53;5064215;28;20536;-62
2021/09/03 10:14:16;;;;;;;16.33;11.45;;;;;;;20.48;59.40;102350.66;5064773;28;20029;-63
2021/09/03 10:16:42;;;;;;;19.67;11.73;;;;;;;20.35;61.31;102349.13;5062211;28;20099;-63
2021/09/03 10:19:08;;;;;;;18.75;12.15;;;;;;;20.38;60.82;102343.75;5064115;28;20025;-64
2021/09/03 10:21:40;;;;;;;23.10;12.75;;;;;;;20.36;60.39;102337.53;5063305;28;20037;-63
2021/09/03 10:24:06;;;;;;;19.40;10.73;;;;;;;20.45;60.28;102334.69;5064176;28;20029;-62
2021/09/03 10:26:44;;;;;;;20.17;12.75;;;;;;;20.46;59.71;102341.81;5064075;28;20025;-63
2021/09/03 10:29:20;;;;;;;21.15;12.02;;;;;;;20.42;61.28;102340.09;5067624;28;20020;-63
2021/09/03 10:32:07;;;;;;;17.58;10.45;;;;;;;20.54;61.00;102334.50;5057920;28;20096;-63
2021/09/03 10:34:42;;;;;;;20.75;11.55;;;;;;;20.72;58.67;102329.72;5064905;28;20033;-63
2021/09/03 10:37:13;;;;;;;19.65;11.68;;;;;;;20.56;59.17;102331.81;5060363;28;20087;-62
2021/09/03 10:39:43;;;;;;;21.58;12.38;;;;;;;20.45;60.61;102327.59;5059211;28;20045;-63
2021/09/03 10:42:09;;;;;;;21.00;13.27;;;;;;;20.48;59.95;102329.31;5063131;28;20028;-63
2021/09/03 10:45:06;;;;;;;19.92;12.93;;;;;;;20.40;60.93;102321.44;5063768;28;20040;-61
2021/09/03 10:47:47;;;;;;;24.80;13.93;;;;;;;20.29;60.59;102314.56;5057585;28;20064;-63
2021/09/03 10:50:43;;;;;;;21.42;13.55;;;;;;;20.36;60.71;102314.41;5056242;28;20038;-63
2021/09/03 10:53:10;;;;;;;21.58;13.27;;;;;;;20.30;60.55;102309.16;5059607;28;20128;-59
2021/09/03 10:55:51;;;;;;;22.88;13.27;;;;;;;20.34;61.58;102304.66;5059190;28;20028;-62
2021/09/03 10:58:42;;;;;;;18.80;12.40;;;;;;;20.35;61.71;102304.63;5057924;28;20040;-62
2021/09/03 11:01:10;;;;;;;22.38;12.75;;;;;;;20.45;59.69;102303.56;5063751;28;20124;-62
2021/09/03 11:04:01;;;;;;;18.42;12.10;;;;;;;20.44;59.74;102300.91;5062654;28;20339;-62
2021/09/03 11:06:28;;;;;;;21.00;12.93;;;;;;;20.36;60.74;102305.50;5061754;28;20052;-62
2021/09/03 11:08:57;;;;;;;23.85;13.63;;;;;;;20.52;59.42;102287.41;5061541;28;20043;-62